This is the latest recevied weather packets stored in our database for station/object EGVP. If no packets are shown the sender has not sent any weather packets the latest 10 day(s).
| Time | Temp. | Humidity | Pressure | Rain* | Wind** | Luminosity | Snow |
|---|---|---|---|---|---|---|---|
| 1788102801 | 20° C | 64% | 1008 hPa | - | - | - | - |
| 1788102200 | 20.56° C | 60% | 1008 hPa | - | - | - | - |
| 1788101601 | 20.56° C | 60% | 1008 hPa | - | - | - | - |
| 1788100999 | 20.56° C | 60% | 1008 hPa | - | - | - | - |
| 1788100401 | 20° C | 60% | 1008 hPa | - | - | - | - |
| 1788099800 | 20° C | 60% | 1008 hPa | - | - | - | - |
| 1788099201 | 20° C | 60% | 1008 hPa | - | - | - | - |
| 1788098602 | 21.67° C | 53% | 1008 hPa | - | - | - | - |
| 1788097998 | 21.67° C | 53% | 1008 hPa | - | - | - | - |
| 1788097400 | 21.67° C | 53% | 1008 hPa | - | - | - | - |
| 1788096801 | 20.56° C | 64% | 1008 hPa | - | - | - | - |
| 1788096200 | 20.56° C | 64% | 1008 hPa | - | - | - | - |
| 1788095600 | 20.56° C | 64% | 1008 hPa | - | - | - | - |
| 1788095000 | 20° C | 64% | 1009 hPa | - | - | - | - |
| 1788094402 | 20° C | 64% | 1009 hPa | - | - | - | - |
| 1788093799 | 20° C | 64% | 1009 hPa | - | - | - | - |
| 1788093199 | 18.89° C | 77% | 1009 hPa | - | - | - | - |
| 1788092598 | 18.89° C | 77% | 1009 hPa | - | - | - | - |
| 1788091999 | 18.89° C | 77% | 1009 hPa | - | - | - | - |
| 1788091401 | 17.78° C | 82% | 1009 hPa | - | - | - | - |
| 1788090801 | 17.78° C | 82% | 1009 hPa | - | - | - | - |
| 1788090199 | 17.78° C | 82% | 1009 hPa | - | - | - | - |
| 1788089597 | 18.89° C | 72% | 1009 hPa | - | - | - | - |
| 1788089006 | 18.89° C | 72% | 1009 hPa | - | - | - | - |
| 1788088400 | 18.89° C | 72% | 1009 hPa | - | - | - | - |
* Rain since midnight (hover to see other rain measurements)
** Current wind speed in m/s (hover to see current wind gust speed)